Time;durP1;ratioP1;P1;durP2;ratioP2;P2;SDS_P1;SDS_P2;PMS_P1;PMS_P2;Temp;Humidity;BMP_temperature;BMP_pressure;BME280_temperature;BME280_humidity;BME280_pressure;Samples;Min_cycle;Max_cycle;Signal;HPM_P1;HPM_P2
2021/08/04 00:03:02;;;;;;;6.22;4.47;;;18.50;99.50;;;;;;11982679;28;20041;-61
2021/08/04 00:08:50;;;;;;;8.75;4.28;;;18.50;99.50;;;;;;11998955;28;20499;-61
2021/08/04 00:14:37;;;;;;;8.00;4.10;;;18.50;99.50;;;;;;11976146;28;20083;-61
2021/08/04 00:20:24;;;;;;;8.68;3.60;;;18.60;99.60;;;;;;11953395;28;20059;-61
2021/08/04 00:26:12;;;;;;;7.03;4.65;;;18.50;99.40;;;;;;11989882;28;20040;-61
2021/08/04 00:31:59;;;;;;;9.32;4.68;;;18.50;99.70;;;;;;12003461;28;20417;-62
2021/08/04 00:37:46;;;;;;;7.53;4.32;;;18.50;99.80;;;;;;12019317;28;20060;-61
2021/08/04 00:43:34;;;;;;;8.38;4.35;;;18.50;99.90;;;;;;12033017;28;20052;-61
2021/08/04 00:49:21;;;;;;;6.38;4.18;;;18.40;99.90;;;;;;11976613;27;20052;-60
2021/08/04 08:00:44;;;;;;;17.48;6.38;;;20.40;99.90;;;;;;14662847;23;20550;-62
2021/08/04 08:06:31;;;;;;;11.83;5.47;;;20.30;99.90;;;;;;14714772;22;20036;-61
2021/08/04 08:12:18;;;;;;;16.58;5.75;;;20.30;99.90;;;;;;14714875;22;20132;-62
2021/08/04 08:18:10;;;;;;;10.30;5.47;;;20.50;99.90;;;;;;14714063;22;20048;-62
2021/08/04 08:23:57;;;;;;;9.80;5.03;;;20.60;99.90;;;;;;14713127;22;20538;-62
2021/08/04 08:29:44;;;;;;;9.68;5.28;;;20.70;99.90;;;;;;14714071;22;20084;-62
2021/08/04 08:35:55;;;;;;;9.77;5.30;;;20.90;99.90;;;;;;14714002;22;20027;-62
2021/08/04 08:41:45;;;;;;;10.05;5.28;;;21.10;99.90;;;;;;14550955;23;20066;-62
2021/08/04 08:47:34;;;;;;;10.45;5.10;;;21.20;99.90;;;;;;14650451;22;20040;-80
2021/08/04 08:53:23;;;;;;;11.90;4.82;;;21.40;98.90;;;;;;14564090;23;20034;-79
2021/08/04 08:59:10;;;;;;;13.95;4.80;;;21.40;98.50;;;;;;14550512;23;20022;-79
2021/08/04 09:04:59;;;;;;;9.25;4.18;;;21.60;98.20;;;;;;14536873;23;20026;-79
2021/08/04 09:10:47;;;;;;;6.95;3.72;;;21.60;96.10;;;;;;14549631;23;20081;-78
2021/08/04 09:16:34;;;;;;;6.57;4.28;;;21.70;96.70;;;;;;14551398;23;20517;-79
2021/08/04 09:22:23;;;;;;;9.30;4.22;;;21.90;95.20;;;;;;14550143;23;20032;-80
2021/08/04 09:28:12;;;;;;;7.32;3.72;;;22.20;95.00;;;;;;14549899;23;20109;-79
2021/08/04 09:33:59;;;;;;;6.18;3.53;;;22.40;94.60;;;;;;14551187;23;20033;-78
2021/08/04 09:39:47;;;;;;;7.65;3.70;;;22.40;93.90;;;;;;14549867;23;20053;-79
2021/08/04 09:45:54;;;;;;;;;;;;;;;;;;;;;
2021/08/04 09:51:42;;;;;;;6.88;4.03;;;22.30;92.00;;;;;;14436570;23;20655;-78
2021/08/04 09:57:40;;;;;;;5.63;3.70;;;22.30;92.10;;;;;;14547702;23;20121;-80
2021/08/04 10:03:28;;;;;;;6.07;2.90;;;22.00;92.90;;;;;;14547059;23;20109;-82
2021/08/04 10:09:16;;;;;;;4.93;2.83;;;22.30;92.50;;;;;;14553745;23;20088;-81
2021/08/04 10:15:04;;;;;;;5.63;3.35;;;22.50;92.00;;;;;;14541976;23;20036;-81
2021/08/04 10:20:55;;;;;;;4.05;3.20;;;22.60;92.00;;;;;;14552367;23;20438;-80
2021/08/04 10:26:43;;;;;;;6.93;3.53;;;22.60;91.60;;;;;;14540167;23;20464;-80
2021/08/04 10:32:41;;;;;;;6.28;3.03;;;22.70;91.50;;;;;;14553910;23;20060;-82
2021/08/04 10:38:30;;;;;;;4.22;3.10;;;22.70;91.50;;;;;;14551890;23;20149;-80
2021/08/04 10:44:23;;;;;;;4.32;2.83;;;22.60;91.10;;;;;;14554967;23;20030;-80
2021/08/04 10:50:12;;;;;;;9.00;3.90;;;22.30;91.10;;;;;;14553871;23;20104;-80
2021/08/04 10:56:00;;;;;;;7.13;3.88;;;22.10;93.40;;;;;;14553243;23;20030;-81
2021/08/04 11:01:49;;;;;;;7.93;3.88;;;22.00;97.00;;;;;;14553920;23;20117;-80
2021/08/04 11:07:37;;;;;;;6.97;4.40;;;21.90;99.60;;;;;;14553152;23;20025;-79
2021/08/04 11:13:56;;;;;;;6.93;4.78;;;21.70;99.90;;;;;;14537879;23;20030;-82
2021/08/04 11:20:13;;;;;;;9.60;4.78;;;21.50;99.90;;;;;;14546147;23;20026;-83
2021/08/04 11:26:25;;;;;;;6.72;4.22;;;21.50;99.90;;;;;;14555060;23;20176;-81
2021/08/04 11:32:21;;;;;;;8.38;5.25;;;21.50;99.90;;;;;;14535195;23;20084;-80
2021/08/04 11:38:08;;;;;;;8.35;5.22;;;21.40;99.90;;;;;;14556030;23;20026;-80
2021/08/04 11:44:00;;;;;;;9.77;5.60;;;21.40;99.90;;;;;;14550703;23;20049;-78
2021/08/04 11:49:52;;;;;;;10.63;5.68;;;21.10;99.90;;;;;;14554546;23;20033;-79
2021/08/04 11:55:39;;;;;;;10.10;5.50;;;20.90;99.90;;;;;;14553274;23;20346;-80
2021/08/04 12:01:26;;;;;;;12.50;6.15;;;20.80;99.90;;;;;;14554456;23;20025;-79
2021/08/04 12:07:14;;;;;;;7.97;5.78;;;20.70;99.90;;;;;;14553779;23;20153;-79
2021/08/04 12:13:06;;;;;;;12.43;7.40;;;20.60;99.90;;;;;;14553001;23;20029;-80
2021/08/04 12:18:53;;;;;;;9.75;6.10;;;20.60;99.90;;;;;;14520388;23;20084;-78
2021/08/04 12:24:47;;;;;;;9.63;6.82;;;20.80;99.90;;;;;;14512696;23;20093;-80
2021/08/04 12:30:38;;;;;;;11.18;6.10;;;20.90;99.90;;;;;;14554608;23;20108;-80
2021/08/04 12:37:01;;;;;;;10.65;6.43;;;21.00;99.90;;;;;;14509899;23;20479;-78
2021/08/04 12:42:49;;;;;;;12.23;6.30;;;21.30;99.90;;;;;;14517508;23;20041;-78
2021/08/04 12:48:38;;;;;;;13.50;6.13;;;21.80;99.90;;;;;;14549290;23;20141;-78
2021/08/04 12:54:30;;;;;;;8.65;5.15;;;22.40;99.90;;;;;;14551312;23;20026;-78
2021/08/04 13:00:30;;;;;;;7.00;4.50;;;23.00;99.90;;;;;;14552200;23;20026;-78
2021/08/04 13:06:17;;;;;;;5.20;3.90;;;23.60;99.90;;;;;;14551913;23;20093;-80
2021/08/04 13:12:23;;;;;;;7.53;4.25;;;23.70;99.90;;;;;;14554322;23;20026;-78
2021/08/04 13:18:11;;;;;;;3.97;3.58;;;23.90;99.90;;;;;;14552520;23;20026;-78
2021/08/04 13:23:58;;;;;;;13.55;4.63;;;24.20;99.90;;;;;;14549307;23;20587;-80
2021/08/04 13:29:45;;;;;;;4.10;3.30;;;24.40;99.90;;;;;;14550859;23;20030;-79
2021/08/04 13:35:36;;;;;;;5.57;3.72;;;24.50;99.90;;;;;;14553142;23;20025;-78
2021/08/04 13:41:23;;;;;;;7.35;3.35;;;24.70;99.20;;;;;;14554309;23;20112;-80
2021/08/04 13:47:13;;;;;;;6.18;4.00;;;24.90;98.80;;;;;;14551577;23;20026;-80
2021/08/04 13:53:02;;;;;;;6.35;4.20;;;25.00;97.80;;;;;;14557270;23;20028;-79
2021/08/04 13:58:49;;;;;;;6.07;3.55;;;25.00;96.50;;;;;;14547110;23;20029;-78
2021/08/04 14:04:38;;;;;;;4.63;3.65;;;24.90;96.70;;;;;;14562204;23;20032;-77
2021/08/04 14:10:28;;;;;;;4.57;3.40;;;24.80;96.30;;;;;;14558590;23;20033;-77
2021/08/04 14:16:14;;;;;;;4.63;3.53;;;24.60;96.20;;;;;;14551477;23;20092;-79
2021/08/04 14:22:01;;;;;;;4.72;3.22;;;24.50;96.60;;;;;;14552549;23;20370;-78
2021/08/04 14:27:50;;;;;;;5.20;3.75;;;24.40;96.20;;;;;;14552024;23;20022;-77
2021/08/04 14:33:44;;;;;;;6.63;3.80;;;24.20;96.20;;;;;;14553482;23;20032;-78
2021/08/04 14:39:32;;;;;;;4.53;3.30;;;24.00;96.10;;;;;;14552282;23;20030;-79
2021/08/04 14:45:21;;;;;;;4.55;3.22;;;23.70;96.40;;;;;;14556185;23;20168;-78
2021/08/04 14:51:22;;;;;;;3.95;3.33;;;23.50;96.00;;;;;;14547958;23;20501;-78
2021/08/04 14:57:12;;;;;;;3.55;3.10;;;23.30;95.40;;;;;;14546553;23;20029;-79
2021/08/04 15:03:05;;;;;;;4.28;3.08;;;23.20;96.30;;;;;;14544755;23;20029;-79
2021/08/04 15:08:52;;;;;;;5.67;3.60;;;23.20;95.30;;;;;;14537062;23;20030;-78
2021/08/04 15:14:39;;;;;;;4.18;3.22;;;23.10;96.10;;;;;;14498269;23;20368;-85
2021/08/04 15:20:47;;;;;;;6.75;3.30;;;23.20;97.00;;;;;;14569670;23;20398;-85
2021/08/04 15:26:37;;;;;;;4.32;3.28;;;23.20;96.50;;;;;;14534945;23;20129;-78
2021/08/04 15:32:26;;;;;;;4.18;2.92;;;23.30;96.10;;;;;;14562032;23;20022;-78
2021/08/04 15:38:14;;;;;;;5.10;3.10;;;23.30;95.40;;;;;;14561584;23;20040;-78
2021/08/04 15:44:03;;;;;;;3.47;3.08;;;23.30;95.50;;;;;;14569205;23;20069;-78
2021/08/04 15:49:50;;;;;;;5.00;2.90;;;23.20;95.50;;;;;;14574624;23;20104;-78
2021/08/04 15:55:40;;;;;;;5.40;2.90;;;23.10;94.80;;;;;;14562680;23;20021;-78
2021/08/04 16:01:28;;;;;;;4.35;2.83;;;23.00;95.60;;;;;;14557062;23;22203;-84
2021/08/04 16:07:18;;;;;;;4.55;2.75;;;23.20;95.80;;;;;;14557477;23;20387;-78
2021/08/04 16:13:06;;;;;;;5.82;2.88;;;23.60;95.60;;;;;;14551492;23;20030;-78
2021/08/04 16:18:56;;;;;;;3.92;3.00;;;23.60;95.00;;;;;;14559005;23;20878;-76
2021/08/04 16:24:48;;;;;;;4.30;3.00;;;23.40;94.10;;;;;;14560153;23;20030;-77
2021/08/04 16:30:38;;;;;;;7.25;3.17;;;23.10;94.20;;;;;;14556560;23;20026;-77
2021/08/04 16:36:25;;;;;;;3.80;2.95;;;23.00;95.00;;;;;;14554924;23;20433;-77
2021/08/04 16:42:16;;;;;;;3.75;3.00;;;22.90;95.10;;;;;;14554092;23;20108;-78
2021/08/04 16:48:08;;;;;;;5.53;3.13;;;22.80;95.90;;;;;;14541058;23;20113;-79
2021/08/04 16:54:02;;;;;;;4.18;2.90;;;22.90;96.10;;;;;;14559364;23;20026;-78
2021/08/04 16:59:55;;;;;;;4.97;3.28;;;22.80;96.20;;;;;;14559654;23;20049;-77
2021/08/04 17:05:47;;;;;;;6.17;3.57;;;22.70;96.30;;;;;;14555111;23;20108;-78
2021/08/04 17:11:35;;;;;;;4.68;3.53;;;22.60;99.40;;;;;;14541710;23;20061;-77
2021/08/04 17:17:24;;;;;;;5.13;2.95;;;22.50;99.20;;;;;;14535658;23;20085;-78
2021/08/04 17:23:12;;;;;;;5.38;3.65;;;22.50;99.10;;;;;;14545746;23;20025;-81
2021/08/04 17:29:32;;;;;;;5.15;3.25;;;22.50;98.10;;;;;;14415112;23;20089;-84
2021/08/04 17:35:39;;;;;;;4.57;3.45;;;22.50;98.10;;;;;;14544675;23;20021;-79
2021/08/04 17:41:36;;;;;;;5.18;3.33;;;22.50;98.60;;;;;;14530177;23;20126;-79
2021/08/04 17:47:31;;;;;;;6.13;4.00;;;22.40;98.60;;;;;;14535721;23;20022;-79
2021/08/04 17:53:18;;;;;;;5.22;4.10;;;22.20;99.20;;;;;;14551877;23;20028;-82
2021/08/04 17:59:13;;;;;;;6.07;3.80;;;22.10;99.90;;;;;;14560270;23;20025;-82
2021/08/04 18:05:12;;;;;;;7.38;4.05;;;22.00;99.90;;;;;;14565222;23;20045;-84
2021/08/04 18:10:59;;;;;;;4.93;3.38;;;22.00;99.90;;;;;;14563479;23;20042;-84
2021/08/04 18:16:55;;;;;;;6.70;4.07;;;22.00;99.90;;;;;;14548799;23;20084;-84
2021/08/04 18:22:43;;;;;;;5.88;4.00;;;22.00;99.90;;;;;;14560442;23;20560;-83
2021/08/04 18:28:30;;;;;;;7.63;3.83;;;22.00;99.90;;;;;;14560909;23;20876;-81
2021/08/04 18:34:19;;;;;;;6.10;3.42;;;22.00;99.90;;;;;;14562044;23;20036;-81
2021/08/04 18:40:07;;;;;;;5.00;3.50;;;21.90;99.90;;;;;;14566540;23;20057;-82
2021/08/04 18:46:01;;;;;;;6.47;3.65;;;21.90;99.90;;;;;;14563121;23;20034;-85
2021/08/04 18:52:24;;;;;;;4.75;3.45;;;21.90;99.90;;;;;;14630095;23;20026;-81
2021/08/04 18:58:11;;;;;;;6.50;3.85;;;21.80;99.90;;;;;;14579802;23;20029;-81
2021/08/04 19:04:00;;;;;;;10.30;3.50;;;21.70;99.90;;;;;;14609455;23;20036;-83
2021/08/04 19:10:04;;;;;;;5.20;3.67;;;21.60;99.90;;;;;;14663563;23;20597;-82
2021/08/04 19:15:56;;;;;;;;;;;21.50;99.90;;;;;;14417394;23;20086;-83
2021/08/04 19:21:43;;;;;;;6.50;3.63;;;21.50;99.90;;;;;;14362963;23;19980;-83
2021/08/04 19:27:37;;;;;;;6.03;3.85;;;21.40;99.90;;;;;;14417175;23;20058;-83
2021/08/04 19:33:23;;;;;;;;;;;21.40;99.90;;;;;;14380410;23;20434;-82
2021/08/04 19:39:12;;;;;;;4.95;3.72;;;21.50;99.90;;;;;;14416879;23;19921;-81
2021/08/04 19:45:04;;;;;;;6.43;4.18;;;21.40;99.90;;;;;;14392180;23;20051;-83
2021/08/04 19:50:53;;;;;;;6.13;3.70;;;21.40;99.90;;;;;;14487021;23;20100;-82
2021/08/04 19:56:43;;;;;;;8.93;4.20;;;21.40;99.90;;;;;;14496029;23;20405;-82
2021/08/04 20:02:33;;;;;;;7.38;4.15;;;21.40;99.90;;;;;;14524164;23;20536;-82
2021/08/04 20:08:20;;;;;;;5.40;3.80;;;21.20;99.90;;;;;;14642517;23;20040;-82
2021/08/04 20:14:09;;;;;;;4.22;3.80;;;21.20;99.90;;;;;;14634326;23;20029;-82
2021/08/04 20:20:04;;;;;;;6.07;4.30;;;21.10;99.90;;;;;;14639692;23;20358;-80
2021/08/04 20:25:53;;;;;;;7.20;4.57;;;21.20;99.90;;;;;;14605727;23;20104;-82
2021/08/04 20:31:40;;;;;;;4.20;3.70;;;21.20;99.90;;;;;;14636041;23;20032;-83
2021/08/04 20:37:37;;;;;;;5.43;4.18;;;21.20;99.90;;;;;;14623555;23;22893;-82
2021/08/04 20:43:27;;;;;;;6.18;4.28;;;21.10;99.90;;;;;;14570979;23;20021;-81
2021/08/04 20:49:16;;;;;;;5.10;4.20;;;21.10;99.90;;;;;;14672293;23;20033;-81
2021/08/04 20:55:22;;;;;;;8.40;4.88;;;21.10;99.90;;;;;;14666273;23;20025;-85
2021/08/04 21:01:09;;;;;;;7.40;4.00;;;21.00;99.90;;;;;;14659515;23;20033;-82
2021/08/04 21:06:56;;;;;;;6.43;4.13;;;21.00;99.90;;;;;;14703284;23;20120;-83
2021/08/04 21:12:45;;;;;;;6.15;4.40;;;21.00;99.90;;;;;;14701742;23;20021;-84
2021/08/04 21:18:36;;;;;;;9.05;4.82;;;21.00;99.90;;;;;;14704866;23;20630;-81
2021/08/04 21:24:26;;;;;;;8.57;4.40;;;20.90;99.90;;;;;;14701794;23;20108;-84
2021/08/04 21:30:15;;;;;;;4.72;4.15;;;20.90;99.90;;;;;;14700017;23;20029;-84
2021/08/04 21:36:02;;;;;;;7.72;4.35;;;21.00;99.90;;;;;;14706859;23;20025;-84
2021/08/04 21:41:49;;;;;;;7.47;4.85;;;21.00;99.90;;;;;;14676133;23;20025;-82
2021/08/04 21:47:41;;;;;;;6.18;4.30;;;21.00;99.90;;;;;;14710406;23;20501;-83
2021/08/04 21:53:28;;;;;;;5.23;4.00;;;20.90;99.90;;;;;;14706278;23;20516;-84
2021/08/04 21:59:15;;;;;;;6.13;4.50;;;20.90;99.90;;;;;;14708955;23;20084;-84
2021/08/04 22:05:03;;;;;;;7.75;4.38;;;20.90;99.90;;;;;;14708019;23;20104;-85
2021/08/04 22:10:52;;;;;;;5.35;4.28;;;20.90;99.90;;;;;;14695227;23;20477;-83
2021/08/04 22:16:39;;;;;;;5.82;4.50;;;21.00;99.90;;;;;;14697604;23;20017;-82
2021/08/04 22:22:28;;;;;;;7.22;4.43;;;21.00;99.90;;;;;;14696866;23;20025;-82
2021/08/04 22:28:16;;;;;;;6.18;4.30;;;21.00;99.90;;;;;;14694866;23;20502;-83
2021/08/04 22:34:03;;;;;;;6.25;4.95;;;21.00;99.90;;;;;;14698864;23;20119;-83
2021/08/04 22:39:51;;;;;;;8.43;5.03;;;20.90;99.90;;;;;;14693608;23;20477;-83
2021/08/04 22:45:39;;;;;;;7.03;4.45;;;20.90;99.90;;;;;;14692708;23;20084;-84
2021/08/04 22:51:26;;;;;;;6.90;4.43;;;20.90;99.90;;;;;;14697383;23;20029;-83
2021/08/04 22:57:14;;;;;;;12.77;5.05;;;20.90;99.90;;;;;;14697364;23;20111;-83
